sensor_id;sensor_type;location;lat;lon;timestamp;P1;durP1;ratioP1;P2;durP2;ratioP2
32174;SDS011;18680;52.050;5.086;2023-05-07T09:27:43;18.20;;;11.75;;
32174;SDS011;18680;52.050;5.086;2023-05-07T09:30:09;15.45;;;10.52;;
32174;SDS011;18680;52.050;5.086;2023-05-07T09:32:35;13.70;;;8.85;;
32174;SDS011;18680;52.050;5.086;2023-05-07T09:35:03;14.52;;;8.63;;
32174;SDS011;18680;52.050;5.086;2023-05-07T09:37:28;10.35;;;8.27;;
32174;SDS011;18680;52.050;5.086;2023-05-07T09:39:55;12.68;;;7.35;;
32174;SDS011;18680;52.050;5.086;2023-05-07T09:42:24;15.90;;;6.82;;
32174;SDS011;18680;52.050;5.086;2023-05-07T09:44:52;10.15;;;6.93;;
32174;SDS011;18680;52.050;5.086;2023-05-07T09:47:18;11.85;;;6.40;;
32174;SDS011;18680;52.050;5.086;2023-05-07T09:49:43;7.10;;;5.75;;
32174;SDS011;18680;52.050;5.086;2023-05-07T09:52:12;8.65;;;4.93;;
32174;SDS011;18680;52.050;5.086;2023-05-07T09:54:38;8.25;;;5.50;;
32174;SDS011;18680;52.050;5.086;2023-05-07T09:57:03;10.15;;;5.38;;
32174;SDS011;18680;52.050;5.086;2023-05-07T09:59:29;7.60;;;5.60;;
32174;SDS011;18680;52.050;5.086;2023-05-07T10:01:56;8.27;;;4.80;;
32174;SDS011;18680;52.050;5.086;2023-05-07T10:04:22;10.02;;;5.60;;
32174;SDS011;18680;52.050;5.086;2023-05-07T10:06:47;9.00;;;5.22;;
32174;SDS011;18680;52.050;5.086;2023-05-07T10:09:13;9.35;;;5.55;;
32174;SDS011;18680;52.050;5.086;2023-05-07T10:11:38;8.70;;;5.70;;
32174;SDS011;18680;52.050;5.086;2023-05-07T10:14:04;9.60;;;4.25;;
32174;SDS011;18680;52.050;5.086;2023-05-07T10:16:35;7.50;;;4.35;;
32174;SDS011;18680;52.050;5.086;2023-05-07T10:19:05;8.05;;;5.50;;
32174;SDS011;18680;52.050;5.086;2023-05-07T10:21:30;7.60;;;5.20;;
32174;SDS011;18680;52.050;5.086;2023-05-07T10:23:58;8.20;;;4.78;;
32174;SDS011;18680;52.050;5.086;2023-05-07T10:26:24;6.88;;;4.35;;
32174;SDS011;18680;52.050;5.086;2023-05-07T10:28:51;5.72;;;4.32;;
32174;SDS011;18680;52.050;5.086;2023-05-07T10:33:43;10.13;;;4.10;;
32174;SDS011;18680;52.050;5.086;2023-05-07T10:36:10;3.80;;;3.33;;
32174;SDS011;18680;52.050;5.086;2023-05-07T10:38:35;6.85;;;4.07;;
32174;SDS011;18680;52.050;5.086;2023-05-07T10:41:01;8.35;;;4.40;;
32174;SDS011;18680;52.050;5.086;2023-05-07T10:43:36;5.05;;;4.38;;
32174;SDS011;18680;52.050;5.086;2023-05-07T10:46:09;6.22;;;4.32;;
32174;SDS011;18680;52.050;5.086;2023-05-07T10:48:35;6.95;;;4.63;;
32174;SDS011;18680;52.050;5.086;2023-05-07T10:51:21;7.95;;;4.88;;
32174;SDS011;18680;52.050;5.086;2023-05-07T10:53:46;7.28;;;5.13;;
32174;SDS011;18680;52.050;5.086;2023-05-07T10:58:43;10.48;;;4.43;;
32174;SDS011;18680;52.050;5.086;2023-05-07T11:01:08;6.53;;;4.10;;
32174;SDS011;18680;52.050;5.086;2023-05-07T11:03:35;8.95;;;3.95;;
32174;SDS011;18680;52.050;5.086;2023-05-07T11:11:20;7.63;;;4.43;;
32174;SDS011;18680;52.050;5.086;2023-05-07T11:14:04;6.30;;;5.28;;
32174;SDS011;18680;52.050;5.086;2023-05-07T11:16:30;6.73;;;4.90;;
32174;SDS011;18680;52.050;5.086;2023-05-07T11:18:57;9.75;;;5.68;;
32174;SDS011;18680;52.050;5.086;2023-05-07T11:23:57;7.47;;;5.82;;
32174;SDS011;18680;52.050;5.086;2023-05-07T11:26:23;6.72;;;5.22;;
32174;SDS011;18680;52.050;5.086;2023-05-07T11:28:48;12.13;;;6.85;;
32174;SDS011;18680;52.050;5.086;2023-05-07T11:31:13;11.20;;;7.00;;
32174;SDS011;18680;52.050;5.086;2023-05-07T11:33:39;9.75;;;6.80;;
32174;SDS011;18680;52.050;5.086;2023-05-07T11:36:05;10.93;;;6.72;;
32174;SDS011;18680;52.050;5.086;2023-05-07T11:38:30;9.27;;;6.68;;
32174;SDS011;18680;52.050;5.086;2023-05-07T11:40:59;12.52;;;6.72;;
32174;SDS011;18680;52.050;5.086;2023-05-07T11:43:25;12.50;;;6.70;;
32174;SDS011;18680;52.050;5.086;2023-05-07T11:45:51;8.30;;;6.22;;
32174;SDS011;18680;52.050;5.086;2023-05-07T11:48:16;7.17;;;6.23;;
32174;SDS011;18680;52.050;5.086;2023-05-07T11:50:59;9.27;;;8.30;;
32174;SDS011;18680;52.050;5.086;2023-05-07T11:53:25;10.52;;;7.50;;
32174;SDS011;18680;52.050;5.086;2023-05-07T11:55:57;13.27;;;9.15;;
32174;SDS011;18680;52.050;5.086;2023-05-07T12:00:53;11.15;;;8.25;;
32174;SDS011;18680;52.050;5.086;2023-05-07T12:03:19;14.02;;;8.95;;
32174;SDS011;18680;52.050;5.086;2023-05-07T12:05:44;14.93;;;9.23;;
32174;SDS011;18680;52.050;5.086;2023-05-07T12:08:19;11.88;;;7.95;;
32174;SDS011;18680;52.050;5.086;2023-05-07T12:10:46;9.00;;;8.10;;
32174;SDS011;18680;52.050;5.086;2023-05-07T12:13:20;10.93;;;7.93;;
32174;SDS011;18680;52.050;5.086;2023-05-07T12:15:46;11.45;;;9.43;;
32174;SDS011;18680;52.050;5.086;2023-05-07T12:18:11;10.50;;;8.25;;
32174;SDS011;18680;52.050;5.086;2023-05-07T12:20:37;13.38;;;7.95;;
32174;SDS011;18680;52.050;5.086;2023-05-07T12:23:02;10.80;;;8.30;;
32174;SDS011;18680;52.050;5.086;2023-05-07T12:25:31;9.25;;;8.05;;
32174;SDS011;18680;52.050;5.086;2023-05-07T12:27:57;9.05;;;7.10;;
32174;SDS011;18680;52.050;5.086;2023-05-07T12:30:24;8.77;;;7.45;;
32174;SDS011;18680;52.050;5.086;2023-05-07T12:32:52;10.20;;;6.53;;
32174;SDS011;18680;52.050;5.086;2023-05-07T12:35:17;14.35;;;6.78;;
32174;SDS011;18680;52.050;5.086;2023-05-07T12:37:42;11.80;;;6.90;;
32174;SDS011;18680;52.050;5.086;2023-05-07T12:40:08;8.63;;;6.50;;
32174;SDS011;18680;52.050;5.086;2023-05-07T12:42:39;8.50;;;5.70;;
32174;SDS011;18680;52.050;5.086;2023-05-07T12:45:08;7.63;;;6.07;;
32174;SDS011;18680;52.050;5.086;2023-05-07T12:47:34;8.75;;;6.22;;
32174;SDS011;18680;52.050;5.086;2023-05-07T12:49:59;7.57;;;5.57;;
32174;SDS011;18680;52.050;5.086;2023-05-07T12:52:24;13.25;;;5.57;;
32174;SDS011;18680;52.050;5.086;2023-05-07T12:54:50;8.35;;;4.97;;
32174;SDS011;18680;52.050;5.086;2023-05-07T12:57:15;6.07;;;4.63;;
32174;SDS011;18680;52.050;5.086;2023-05-07T12:59:44;17.73;;;4.90;;
32174;SDS011;18680;52.050;5.086;2023-05-07T13:02:09;8.70;;;4.93;;
32174;SDS011;18680;52.050;5.086;2023-05-07T13:04:34;7.00;;;4.30;;
32174;SDS011;18680;52.050;5.086;2023-05-07T13:07:00;6.70;;;4.23;;
32174;SDS011;18680;52.050;5.086;2023-05-07T13:09:25;7.47;;;4.07;;
32174;SDS011;18680;52.050;5.086;2023-05-07T13:11:51;4.90;;;3.88;;
32174;SDS011;18680;52.050;5.086;2023-05-07T13:14:16;8.33;;;4.10;;
32174;SDS011;18680;52.050;5.086;2023-05-07T13:16:41;4.65;;;3.58;;
32174;SDS011;18680;52.050;5.086;2023-05-07T13:19:07;4.60;;;3.40;;
32174;SDS011;18680;52.050;5.086;2023-05-07T13:21:32;4.53;;;3.20;;
32174;SDS011;18680;52.050;5.086;2023-05-07T13:23:57;6.53;;;3.38;;
32174;SDS011;18680;52.050;5.086;2023-05-07T13:26:23;4.68;;;3.10;;
32174;SDS011;18680;52.050;5.086;2023-05-07T13:28:48;5.97;;;2.70;;
32174;SDS011;18680;52.050;5.086;2023-05-07T13:31:13;4.27;;;2.67;;
32174;SDS011;18680;52.050;5.086;2023-05-07T13:33:38;7.20;;;3.53;;
32174;SDS011;18680;52.050;5.086;2023-05-07T13:36:04;7.00;;;2.77;;
32174;SDS011;18680;52.050;5.086;2023-05-07T13:38:30;5.97;;;2.58;;
32174;SDS011;18680;52.050;5.086;2023-05-07T13:40:55;8.13;;;2.47;;
32174;SDS011;18680;52.050;5.086;2023-05-07T13:43:21;6.67;;;2.97;;
32174;SDS011;18680;52.050;5.086;2023-05-07T13:45:46;7.30;;;3.73;;
32174;SDS011;18680;52.050;5.086;2023-05-07T13:48:11;5.38;;;2.95;;
32174;SDS011;18680;52.050;5.086;2023-05-07T13:50:36;7.03;;;2.90;;
32174;SDS011;18680;52.050;5.086;2023-05-07T13:53:01;8.33;;;3.20;;
32174;SDS011;18680;52.050;5.086;2023-05-07T13:55:28;5.40;;;2.73;;
32174;SDS011;18680;52.050;5.086;2023-05-07T13:57:57;7.85;;;3.58;;
32174;SDS011;18680;52.050;5.086;2023-05-07T14:00:22;6.35;;;3.13;;
32174;SDS011;18680;52.050;5.086;2023-05-07T14:02:47;8.15;;;3.60;;
32174;SDS011;18680;52.050;5.086;2023-05-07T14:05:13;6.40;;;3.80;;
32174;SDS011;18680;52.050;5.086;2023-05-07T14:07:38;6.60;;;3.73;;
32174;SDS011;18680;52.050;5.086;2023-05-07T14:10:03;8.87;;;3.20;;
32174;SDS011;18680;52.050;5.086;2023-05-07T14:12:29;4.95;;;3.42;;
32174;SDS011;18680;52.050;5.086;2023-05-07T14:14:54;4.72;;;3.60;;
32174;SDS011;18680;52.050;5.086;2023-05-07T14:17:20;8.02;;;3.92;;
32174;SDS011;18680;52.050;5.086;2023-05-07T14:19:45;7.03;;;4.28;;
32174;SDS011;18680;52.050;5.086;2023-05-07T14:22:10;7.77;;;4.23;;
32174;SDS011;18680;52.050;5.086;2023-05-07T14:24:35;8.07;;;4.20;;
32174;SDS011;18680;52.050;5.086;2023-05-07T14:27:01;9.87;;;4.67;;
32174;SDS011;18680;52.050;5.086;2023-05-07T14:29:26;10.00;;;6.20;;
32174;SDS011;18680;52.050;5.086;2023-05-07T14:31:51;10.07;;;6.00;;
32174;SDS011;18680;52.050;5.086;2023-05-07T14:34:16;9.57;;;5.53;;
32174;SDS011;18680;52.050;5.086;2023-05-07T14:36:41;8.43;;;5.10;;
32174;SDS011;18680;52.050;5.086;2023-05-07T14:39:08;8.63;;;5.38;;
32174;SDS011;18680;52.050;5.086;2023-05-07T14:41:34;8.75;;;4.85;;
32174;SDS011;18680;52.050;5.086;2023-05-07T14:43:59;8.98;;;4.60;;
32174;SDS011;18680;52.050;5.086;2023-05-07T14:46:24;6.25;;;4.38;;
32174;SDS011;18680;52.050;5.086;2023-05-07T14:48:50;7.85;;;4.47;;
32174;SDS011;18680;52.050;5.086;2023-05-07T14:51:16;7.40;;;4.50;;
32174;SDS011;18680;52.050;5.086;2023-05-07T14:53:41;6.57;;;3.97;;
32174;SDS011;18680;52.050;5.086;2023-05-07T14:56:07;8.98;;;3.95;;
32174;SDS011;18680;52.050;5.086;2023-05-07T14:58:32;7.13;;;4.50;;
32174;SDS011;18680;52.050;5.086;2023-05-07T15:00:58;8.48;;;4.40;;
32174;SDS011;18680;52.050;5.086;2023-05-07T15:03:23;11.15;;;4.70;;
32174;SDS011;18680;52.050;5.086;2023-05-07T15:05:49;7.07;;;3.88;;
32174;SDS011;18680;52.050;5.086;2023-05-07T15:08:16;8.50;;;4.28;;
32174;SDS011;18680;52.050;5.086;2023-05-07T15:10:41;8.75;;;4.45;;
32174;SDS011;18680;52.050;5.086;2023-05-07T15:13:07;8.27;;;4.75;;
32174;SDS011;18680;52.050;5.086;2023-05-07T15:15:32;6.25;;;4.05;;
32174;SDS011;18680;52.050;5.086;2023-05-07T15:17:58;5.38;;;3.60;;
32174;SDS011;18680;52.050;5.086;2023-05-07T15:20:25;5.43;;;3.80;;
32174;SDS011;18680;52.050;5.086;2023-05-07T15:22:50;6.22;;;4.72;;
32174;SDS011;18680;52.050;5.086;2023-05-07T15:25:15;10.55;;;6.30;;
32174;SDS011;18680;52.050;5.086;2023-05-07T15:27:41;11.37;;;6.10;;
32174;SDS011;18680;52.050;5.086;2023-05-07T15:30:06;8.90;;;5.73;;
32174;SDS011;18680;52.050;5.086;2023-05-07T15:32:31;7.78;;;6.05;;
32174;SDS011;18680;52.050;5.086;2023-05-07T15:34:57;8.87;;;4.60;;
32174;SDS011;18680;52.050;5.086;2023-05-07T15:37:22;8.57;;;5.77;;
32174;SDS011;18680;52.050;5.086;2023-05-07T15:39:47;7.67;;;5.83;;
32174;SDS011;18680;52.050;5.086;2023-05-07T15:42:12;15.63;;;6.03;;
32174;SDS011;18680;52.050;5.086;2023-05-07T15:44:37;17.07;;;7.27;;
32174;SDS011;18680;52.050;5.086;2023-05-07T15:47:03;27.40;;;13.35;;
32174;SDS011;18680;52.050;5.086;2023-05-07T15:49:28;39.70;;;18.23;;
32174;SDS011;18680;52.050;5.086;2023-05-07T15:51:53;53.80;;;26.70;;
32174;SDS011;18680;52.050;5.086;2023-05-07T15:54:19;81.22;;;42.63;;
32174;SDS011;18680;52.050;5.086;2023-05-07T15:56:45;84.80;;;43.92;;
32174;SDS011;18680;52.050;5.086;2023-05-07T15:59:10;58.40;;;30.15;;
32174;SDS011;18680;52.050;5.086;2023-05-07T16:01:36;50.85;;;26.35;;
32174;SDS011;18680;52.050;5.086;2023-05-07T16:04:02;47.70;;;25.77;;
32174;SDS011;18680;52.050;5.086;2023-05-07T16:06:27;77.22;;;30.55;;
32174;SDS011;18680;52.050;5.086;2023-05-07T16:08:52;32.70;;;15.73;;
32174;SDS011;18680;52.050;5.086;2023-05-07T16:11:18;32.93;;;16.43;;
32174;SDS011;18680;52.050;5.086;2023-05-07T16:13:43;28.97;;;13.87;;
32174;SDS011;18680;52.050;5.086;2023-05-07T16:16:08;25.83;;;13.40;;
32174;SDS011;18680;52.050;5.086;2023-05-07T16:18:33;22.93;;;11.53;;
32174;SDS011;18680;52.050;5.086;2023-05-07T16:21:00;21.13;;;10.90;;
32174;SDS011;18680;52.050;5.086;2023-05-07T16:23:26;20.55;;;10.45;;
32174;SDS011;18680;52.050;5.086;2023-05-07T16:25:51;21.00;;;9.67;;
32174;SDS011;18680;52.050;5.086;2023-05-07T16:28:16;20.17;;;9.63;;
32174;SDS011;18680;52.050;5.086;2023-05-07T16:30:41;15.73;;;8.03;;
32174;SDS011;18680;52.050;5.086;2023-05-07T16:33:07;15.18;;;9.85;;
32174;SDS011;18680;52.050;5.086;2023-05-07T16:35:32;12.43;;;7.13;;
32174;SDS011;18680;52.050;5.086;2023-05-07T16:37:57;18.97;;;8.27;;
32174;SDS011;18680;52.050;5.086;2023-05-07T16:40:22;13.60;;;6.70;;
32174;SDS011;18680;52.050;5.086;2023-05-07T16:42:48;12.40;;;6.55;;
32174;SDS011;18680;52.050;5.086;2023-05-07T16:45:13;11.57;;;6.17;;
32174;SDS011;18680;52.050;5.086;2023-05-07T16:47:38;20.08;;;9.63;;
32174;SDS011;18680;52.050;5.086;2023-05-07T16:50:03;13.13;;;6.17;;
32174;SDS011;18680;52.050;5.086;2023-05-07T16:52:29;9.55;;;5.15;;
32174;SDS011;18680;52.050;5.086;2023-05-07T16:54:55;5.85;;;5.03;;
32174;SDS011;18680;52.050;5.086;2023-05-07T16:57:24;30.60;;;19.27;;
32174;SDS011;18680;52.050;5.086;2023-05-07T16:59:50;166.32;;;107.22;;
32174;SDS011;18680;52.050;5.086;2023-05-07T17:02:15;52.88;;;31.38;;
32174;SDS011;18680;52.050;5.086;2023-05-07T17:04:40;21.73;;;13.83;;
32174;SDS011;18680;52.050;5.086;2023-05-07T17:07:05;29.33;;;17.83;;
32174;SDS011;18680;52.050;5.086;2023-05-07T17:09:31;27.15;;;16.42;;
32174;SDS011;18680;52.050;5.086;2023-05-07T17:11:56;24.60;;;14.20;;
32174;SDS011;18680;52.050;5.086;2023-05-07T17:14:21;26.33;;;14.20;;
32174;SDS011;18680;52.050;5.086;2023-05-07T17:16:47;26.17;;;11.50;;
32174;SDS011;18680;52.050;5.086;2023-05-07T17:19:12;23.50;;;11.97;;
32174;SDS011;18680;52.050;5.086;2023-05-07T17:21:37;18.03;;;9.77;;
32174;SDS011;18680;52.050;5.086;2023-05-07T17:24:02;15.93;;;9.93;;
32174;SDS011;18680;52.050;5.086;2023-05-07T17:26:28;13.55;;;9.15;;
32174;SDS011;18680;52.050;5.086;2023-05-07T17:28:53;16.58;;;9.45;;
32174;SDS011;18680;52.050;5.086;2023-05-07T17:31:18;15.87;;;9.07;;
32174;SDS011;18680;52.050;5.086;2023-05-07T17:33:43;15.63;;;8.97;;
32174;SDS011;18680;52.050;5.086;2023-05-07T17:36:09;12.85;;;7.95;;
32174;SDS011;18680;52.050;5.086;2023-05-07T17:38:34;10.20;;;7.05;;
32174;SDS011;18680;52.050;5.086;2023-05-07T17:41:00;18.05;;;5.97;;
32174;SDS011;18680;52.050;5.086;2023-05-07T17:43:25;13.38;;;6.65;;
32174;SDS011;18680;52.050;5.086;2023-05-07T17:45:51;12.48;;;5.72;;
32174;SDS011;18680;52.050;5.086;2023-05-07T17:48:16;12.32;;;5.93;;
32174;SDS011;18680;52.050;5.086;2023-05-07T17:50:41;11.95;;;5.32;;
32174;SDS011;18680;52.050;5.086;2023-05-07T17:53:07;10.63;;;5.45;;
